Time;durP1;ratioP1;P1;durP2;ratioP2;P2;SDS_P1;SDS_P2;PMS_P1;PMS_P2;Temp;Humidity;BMP_temperature;BMP_pressure;BME280_temperature;BME280_humidity;BME280_pressure;Samples;Min_cycle;Max_cycle;Signal;HPM_P1;HPM_P2
2020/12/22 00:01:12;;;;;;;4.05;3.35;;;18.80;26.50;;;;;;5117837;28;20234;-60
2020/12/22 00:03:39;;;;;;;3.63;3.40;;;18.80;26.50;;;;;;5117388;28;20695;-59
2020/12/22 00:06:04;;;;;;;3.70;3.40;;;18.80;26.50;;;;;;5117542;28;20172;-59
2020/12/22 00:08:30;;;;;;;3.53;3.23;;;18.80;26.50;;;;;;5116936;28;20563;-60
2020/12/22 00:10:56;;;;;;;3.50;3.20;;;18.80;26.50;;;;;;5117562;28;20169;-60
2020/12/22 00:13:21;;;;;;;3.43;3.13;;;18.80;26.50;;;;;;5117394;28;20153;-59
2020/12/22 00:15:47;;;;;;;3.57;3.27;;;18.80;26.60;;;;;;5098878;28;20707;-59
2020/12/22 00:18:14;;;;;;;3.63;3.33;;;18.80;26.50;;;;;;5117330;28;20157;-60
2020/12/22 00:20:39;;;;;;;3.20;2.90;;;18.80;26.50;;;;;;5117232;28;20201;-60
2020/12/22 00:23:05;;;;;;;3.47;3.17;;;18.80;26.50;;;;;;5116830;28;20191;-60
2020/12/22 00:25:31;;;;;;;3.67;3.00;;;18.80;26.50;;;;;;5099048;28;20194;-60
2020/12/22 00:27:57;;;;;;;4.10;3.70;;;18.80;27.10;;;;;;5116963;28;20412;-59
2020/12/22 00:30:23;;;;;;;4.07;3.27;;;18.80;26.50;;;;;;5116927;28;20398;-60
2020/12/22 00:32:48;;;;;;;3.73;3.37;;;18.80;26.50;;;;;;5117054;28;20369;-59
2020/12/22 00:35:14;;;;;;;3.63;3.33;;;18.80;26.50;;;;;;5098828;28;20169;-60
2020/12/22 00:37:40;;;;;;;3.50;3.20;;;18.80;26.50;;;;;;5116743;28;20161;-60
2020/12/22 00:40:06;;;;;;;4.77;3.63;;;18.80;26.50;;;;;;5117045;28;20165;-59
2020/12/22 00:42:32;;;;;;;4.20;3.20;;;18.80;26.50;;;;;;5098484;28;20263;-59
2020/12/22 00:44:58;;;;;;;3.60;3.30;;;18.80;26.50;;;;;;5116724;28;20233;-59
2020/12/22 00:47:24;;;;;;;3.50;3.20;;;18.80;26.50;;;;;;5116665;28;20438;-60
2020/12/22 00:49:50;;;;;;;3.33;3.03;;;18.80;26.50;;;;;;5116482;28;20205;-59
2020/12/22 00:52:16;;;;;;;3.23;2.93;;;18.80;26.50;;;;;;5116153;28;20157;-60
2020/12/22 00:54:41;;;;;;;3.53;3.22;;;18.80;26.50;;;;;;5116643;28;20646;-60
2020/12/22 00:57:07;;;;;;;3.03;2.83;;;18.80;26.50;;;;;;5116422;28;20163;-60
2020/12/22 00:59:35;;;;;;;4.53;3.57;;;18.80;26.50;;;;;;5098262;28;20165;-60
2020/12/22 01:02:05;;;;;;;4.07;3.20;;;18.80;26.50;;;;;;5116676;28;20165;-60
2020/12/22 01:04:31;;;;;;;3.92;3.55;;;18.80;26.50;;;;;;5115316;28;20150;-60
2020/12/22 01:06:57;;;;;;;2.78;2.53;;;18.80;26.50;;;;;;5131695;27;20512;-59
2020/12/22 01:09:23;;;;;;;3.13;2.80;;;18.80;26.60;;;;;;5116536;28;20157;-59
2020/12/22 01:11:48;;;;;;;3.30;3.00;;;18.80;26.50;;;;;;5116433;28;20190;-59
2020/12/22 01:14:14;;;;;;;3.17;2.73;;;18.80;26.50;;;;;;5116100;28;20169;-60
2020/12/22 01:16:39;;;;;;;4.23;3.83;;;18.80;26.50;;;;;;5097861;28;20203;-60
2020/12/22 01:19:05;;;;;;;3.50;3.20;;;18.80;26.50;;;;;;5116004;28;20604;-60
2020/12/22 01:21:31;;;;;;;3.37;3.00;;;18.80;26.50;;;;;;5115992;28;20181;-60
2020/12/22 01:23:56;;;;;;;3.07;2.87;;;18.80;26.50;;;;;;5115610;28;20165;-60
2020/12/22 01:26:24;;;;;;;4.00;3.27;;;18.80;26.50;;;;;;5097889;28;20165;-60
2020/12/22 01:28:50;;;;;;;3.78;3.50;;;18.80;26.50;;;;;;5115805;28;20527;-60
2020/12/22 01:31:29;;;;;;;3.60;3.25;;;18.80;26.50;;;;;;5116068;28;20181;-60
2020/12/22 01:33:57;;;;;;;4.20;3.45;;;18.80;26.50;;;;;;5115846;28;20188;-60
2020/12/22 01:36:23;;;;;;;3.70;3.00;;;18.80;27.10;;;;;;5097492;28;20527;-60
2020/12/22 01:38:49;;;;;;;2.70;2.50;;;18.80;26.50;;;;;;5097371;28;20199;-60
2020/12/22 01:41:16;;;;;;;3.08;2.80;;;18.80;26.50;;;;;;5115497;28;20236;-60
2020/12/22 01:43:42;;;;;;;3.40;3.10;;;18.90;26.60;;;;;;5115593;28;20157;-60
2020/12/22 01:46:08;;;;;;;3.65;3.35;;;18.80;26.50;;;;;;5115683;28;20157;-59
2020/12/22 01:48:36;;;;;;;3.35;3.05;;;18.80;26.50;;;;;;5115321;28;20655;-60
2020/12/22 01:51:03;;;;;;;3.28;2.97;;;18.90;26.60;;;;;;5115563;28;20622;-60
2020/12/22 01:53:32;;;;;;;3.92;3.03;;;18.80;26.50;;;;;;5115057;28;20156;-60
2020/12/22 01:55:57;;;;;;;3.20;2.95;;;18.80;26.50;;;;;;5115321;28;20240;-60
2020/12/22 01:58:23;;;;;;;3.07;2.77;;;18.80;26.50;;;;;;5115265;28;20223;-61
2020/12/22 02:00:48;;;;;;;3.80;3.50;;;18.90;26.60;;;;;;5115330;28;20508;-61
2020/12/22 02:03:15;;;;;;;4.17;2.80;;;18.90;26.50;;;;;;5115269;28;20604;-61
2020/12/22 02:05:41;;;;;;;3.65;3.35;;;18.90;26.50;;;;;;5115800;28;20184;-60
2020/12/22 02:08:09;;;;;;;2.90;2.70;;;18.90;26.50;;;;;;5114655;28;20543;-60
2020/12/22 02:10:47;;;;;;;3.45;3.15;;;18.80;26.40;;;;;;5115265;28;20399;-60
2020/12/22 02:13:13;;;;;;;3.33;3.03;;;18.90;26.50;;;;;;5115114;28;20161;-59
2020/12/22 02:15:38;;;;;;;3.30;3.03;;;18.90;26.50;;;;;;5114833;28;20155;-60
2020/12/22 02:18:04;;;;;;;4.47;3.47;;;18.90;26.50;;;;;;5115011;28;20161;-60
2020/12/22 02:20:33;;;;;;;3.70;3.40;;;18.90;26.50;;;;;;5114870;28;20591;-60
2020/12/22 02:22:58;;;;;;;3.58;3.28;;;18.90;26.50;;;;;;5114429;28;20630;-60
2020/12/22 02:25:24;;;;;;;3.70;3.20;;;18.90;26.50;;;;;;5114824;28;20165;-60
2020/12/22 02:27:49;;;;;;;3.57;3.27;;;18.90;26.50;;;;;;5114729;28;20193;-60
2020/12/22 02:30:15;;;;;;;3.13;2.70;;;18.90;26.50;;;;;;5114920;28;20176;-60
2020/12/22 02:32:41;;;;;;;3.23;2.93;;;18.90;26.50;;;;;;5114657;28;20160;-60
2020/12/22 02:35:06;;;;;;;3.20;2.90;;;18.90;26.50;;;;;;5114745;28;20879;-60
2020/12/22 02:37:32;;;;;;;4.63;3.83;;;18.90;26.50;;;;;;5114182;28;20247;-60
2020/12/22 02:39:58;;;;;;;3.30;3.00;;;18.90;26.40;;;;;;5096696;28;20167;-60
2020/12/22 02:42:23;;;;;;;3.23;2.93;;;18.90;26.50;;;;;;5114563;28;20161;-60
2020/12/22 02:44:49;;;;;;;3.20;2.93;;;18.90;26.50;;;;;;5114584;28;20603;-60
2020/12/22 02:47:15;;;;;;;5.40;3.40;;;18.90;26.50;;;;;;5114427;28;20157;-61
2020/12/22 02:49:42;;;;;;;3.10;2.90;;;18.90;27.00;;;;;;5114382;28;20217;-60
2020/12/22 02:52:08;;;;;;;3.42;3.13;;;18.90;26.40;;;;;;5095599;28;20184;-60
2020/12/22 02:54:35;;;;;;;4.07;3.30;;;18.90;26.40;;;;;;5095998;28;20214;-60
2020/12/22 02:57:00;;;;;;;3.55;3.25;;;18.90;26.40;;;;;;5114373;28;20150;-61
2020/12/22 02:59:26;;;;;;;4.00;3.60;;;18.90;26.40;;;;;;5114493;28;20157;-61
2020/12/22 03:01:52;;;;;;;3.70;2.70;;;18.90;26.40;;;;;;5114216;28;20616;-61
2020/12/22 03:04:18;;;;;;;3.57;3.10;;;18.90;26.40;;;;;;5114249;28;20165;-60
2020/12/22 03:06:44;;;;;;;2.93;2.60;;;18.90;26.40;;;;;;5114255;28;20403;-60
2020/12/22 03:09:09;;;;;;;3.27;2.97;;;18.90;26.40;;;;;;5113659;28;20643;-61
2020/12/22 03:11:35;;;;;;;3.67;2.90;;;18.90;26.40;;;;;;5114182;28;20153;-60
2020/12/22 03:14:01;;;;;;;3.40;3.10;;;18.90;26.40;;;;;;5114177;28;20168;-60
2020/12/22 03:16:27;;;;;;;3.40;3.10;;;18.90;26.40;;;;;;5114119;28;20207;-61
2020/12/22 03:18:52;;;;;;;3.30;3.00;;;18.90;26.40;;;;;;5114086;28;20161;-60
2020/12/22 03:21:18;;;;;;;3.23;2.70;;;18.90;26.40;;;;;;5114069;28;20187;-60
2020/12/22 03:23:44;;;;;;;3.43;3.17;;;18.90;26.40;;;;;;5095456;28;20157;-61
2020/12/22 03:26:10;;;;;;;3.10;2.80;;;18.90;26.40;;;;;;5113947;28;20160;-60
2020/12/22 03:28:35;;;;;;;2.73;2.53;;;18.90;26.40;;;;;;5099135;28;20219;-60
2020/12/22 03:31:01;;;;;;;3.17;2.97;;;18.90;26.40;;;;;;5100242;28;20205;-60
2020/12/22 03:33:28;;;;;;;3.07;2.87;;;18.90;26.40;;;;;;5118134;28;20623;-60
2020/12/22 03:35:54;;;;;;;3.55;3.25;;;18.90;26.40;;;;;;5118195;28;20149;-60
2020/12/22 03:38:20;;;;;;;3.45;2.63;;;18.90;26.40;;;;;;5117591;28;20149;-60
2020/12/22 03:40:46;;;;;;;3.13;2.80;;;18.90;26.40;;;;;;5117903;28;20157;-60
2020/12/22 03:43:11;;;;;;;3.10;2.80;;;18.90;26.40;;;;;;5117990;28;20390;-60
2020/12/22 03:45:39;;;;;;;3.50;3.10;;;18.90;26.40;;;;;;5118084;28;20594;-60
2020/12/22 03:48:05;;;;;;;3.17;2.88;;;18.90;26.40;;;;;;5117854;28;20216;-60
2020/12/22 03:50:30;;;;;;;3.13;2.80;;;18.90;26.40;;;;;;5099482;28;20240;-60
2020/12/22 03:53:03;;;;;;;3.23;2.97;;;18.90;26.40;;;;;;5117339;28;20503;-60
2020/12/22 03:55:32;;;;;;;3.30;3.03;;;18.90;26.40;;;;;;5117836;28;20373;-59
2020/12/22 03:57:57;;;;;;;2.72;2.53;;;18.90;26.40;;;;;;5117807;28;20511;-59
2020/12/22 04:00:23;;;;;;;2.80;2.60;;;18.90;26.40;;;;;;5117851;28;20601;-59
2020/12/22 04:02:49;;;;;;;3.30;3.00;;;18.90;26.40;;;;;;5117526;28;20218;-60
2020/12/22 04:05:14;;;;;;;3.20;2.70;;;18.90;26.40;;;;;;5117709;28;20512;-60
2020/12/22 04:07:40;;;;;;;2.87;2.53;;;18.90;26.40;;;;;;5116810;28;20719;-60
2020/12/22 04:10:07;;;;;;;3.17;2.87;;;18.90;26.40;;;;;;5099557;28;20168;-60
2020/12/22 04:12:34;;;;;;;2.63;2.42;;;18.90;26.40;;;;;;5117404;28;20605;-60
2020/12/22 04:15:00;;;;;;;2.85;2.65;;;18.90;26.40;;;;;;5117373;28;20240;-59
2020/12/22 04:17:25;;;;;;;2.70;2.45;;;18.90;26.40;;;;;;5117338;28;20200;-59
2020/12/22 04:19:52;;;;;;;4.70;3.20;;;18.90;26.40;;;;;;5117198;28;20189;-59
2020/12/22 04:22:17;;;;;;;3.13;2.88;;;18.90;26.40;;;;;;5116734;28;20191;-60
2020/12/22 04:24:43;;;;;;;2.90;2.70;;;18.90;26.40;;;;;;5117237;28;20165;-60
2020/12/22 04:27:09;;;;;;;3.20;2.90;;;18.90;26.40;;;;;;5117010;28;20165;-60
2020/12/22 04:29:34;;;;;;;3.17;2.73;;;18.90;26.40;;;;;;5117187;28;20631;-60
2020/12/22 04:32:00;;;;;;;3.40;2.97;;;18.90;26.40;;;;;;5098967;28;20160;-59
2020/12/22 04:34:26;;;;;;;2.47;2.27;;;18.90;26.40;;;;;;5117070;28;20785;-59
2020/12/22 04:36:52;;;;;;;2.90;2.70;;;18.90;26.40;;;;;;5098442;28;20644;-59
2020/12/22 04:39:18;;;;;;;2.72;2.53;;;18.90;26.40;;;;;;5116753;28;20451;-59
2020/12/22 04:41:47;;;;;;;2.90;2.70;;;18.90;26.40;;;;;;5117051;28;20157;-59
2020/12/22 04:44:14;;;;;;;2.95;2.65;;;18.90;26.40;;;;;;5116909;28;20399;-59
2020/12/22 04:46:40;;;;;;;3.58;3.25;;;18.90;26.40;;;;;;5116890;28;20153;-59
2020/12/22 04:49:09;;;;;;;3.40;3.10;;;18.90;26.40;;;;;;5116652;28;20224;-60
2020/12/22 04:51:37;;;;;;;2.53;2.33;;;18.90;26.40;;;;;;5116702;28;20164;-60
2020/12/22 04:54:06;;;;;;;2.72;2.50;;;18.90;26.40;;;;;;5116171;28;20150;-61
2020/12/22 04:56:33;;;;;;;2.40;2.30;;;18.90;26.40;;;;;;5116657;28;20237;-60
2020/12/22 04:58:58;;;;;;;3.15;2.88;;;18.90;26.40;;;;;;5116607;28;20161;-60
2020/12/22 05:01:24;;;;;;;4.13;2.97;;;18.90;26.40;;;;;;5116552;28;20482;-60
2020/12/22 05:03:50;;;;;;;2.97;2.75;;;18.90;26.40;;;;;;5116448;28;20185;-60
2020/12/22 05:06:16;;;;;;;3.07;2.80;;;18.90;26.40;;;;;;5116320;28;20199;-61
2020/12/22 05:08:41;;;;;;;2.73;2.53;;;18.90;26.30;;;;;;5097601;28;20295;-61
2020/12/22 05:11:15;;;;;;;3.10;2.80;;;18.90;26.40;;;;;;5116209;28;20153;-61
2020/12/22 05:13:41;;;;;;;2.60;2.40;;;18.90;26.30;;;;;;5116206;28;20145;-59
2020/12/22 05:16:09;;;;;;;2.63;2.47;;;18.90;26.40;;;;;;5116195;28;20516;-60
2020/12/22 05:18:35;;;;;;;2.78;2.55;;;18.90;26.40;;;;;;5116169;28;20160;-60
2020/12/22 05:21:01;;;;;;;2.60;2.40;;;18.90;26.30;;;;;;5115996;28;20532;-60
2020/12/22 05:23:28;;;;;;;2.80;2.30;;;18.90;26.90;;;;;;5097397;28;20181;-59
2020/12/22 05:25:53;;;;;;;2.55;2.30;;;19.00;26.40;;;;;;5116175;28;20169;-60
2020/12/22 05:28:22;;;;;;;3.00;2.70;;;19.00;26.40;;;;;;5116188;28;20531;-61
2020/12/22 05:30:50;;;;;;;3.75;3.42;;;18.90;26.30;;;;;;5116108;28;20157;-60
2020/12/22 05:33:17;;;;;;;2.78;2.50;;;19.00;26.40;;;;;;5115879;28;20609;-60
2020/12/22 05:35:45;;;;;;;2.63;2.42;;;19.00;26.40;;;;;;5116169;28;20157;-60
2020/12/22 05:38:13;;;;;;;2.70;2.50;;;18.90;26.40;;;;;;5115471;28;20638;-61
2020/12/22 05:40:41;;;;;;;3.10;2.85;;;19.00;26.40;;;;;;5115798;28;20612;-59
2020/12/22 05:43:08;;;;;;;3.15;2.30;;;18.90;26.30;;;;;;5131864;27;20176;-60
2020/12/22 05:45:35;;;;;;;2.97;2.60;;;19.00;26.40;;;;;;5115701;28;20617;-60
2020/12/22 05:48:01;;;;;;;3.00;2.70;;;19.00;26.40;;;;;;5115400;28;20632;-60
2020/12/22 05:50:27;;;;;;;4.72;2.70;;;19.00;26.40;;;;;;5114858;28;20294;-60
2020/12/22 05:52:54;;;;;;;2.43;2.20;;;18.90;26.90;;;;;;5096901;28;20214;-60
2020/12/22 05:55:31;;;;;;;2.60;2.40;;;19.00;26.40;;;;;;5115502;28;20401;-60
2020/12/22 05:58:07;;;;;;;3.15;2.63;;;19.00;26.40;;;;;;5115466;28;20608;-60
2020/12/22 06:00:32;;;;;;;2.92;2.63;;;19.00;26.40;;;;;;5097130;28;20172;-60
2020/12/22 06:03:13;;;;;;;2.43;2.23;;;18.90;26.30;;;;;;5115172;28;20172;-60
2020/12/22 06:05:41;;;;;;;2.50;2.30;;;19.00;26.40;;;;;;5115213;28;20185;-60
2020/12/22 06:08:16;;;;;;;2.97;2.75;;;19.00;26.40;;;;;;5114675;28;20177;-60
2020/12/22 06:10:43;;;;;;;3.70;3.40;;;19.00;26.40;;;;;;5115240;28;20177;-60
2020/12/22 06:13:09;;;;;;;3.08;2.88;;;19.00;26.40;;;;;;5096853;28;20158;-60
2020/12/22 06:15:35;;;;;;;3.72;2.65;;;19.00;26.40;;;;;;5115405;28;20192;-60
2020/12/22 06:18:02;;;;;;;3.33;2.53;;;19.00;26.40;;;;;;5114692;28;20167;-60
2020/12/22 06:20:29;;;;;;;3.17;2.88;;;19.00;26.40;;;;;;5096684;28;20181;-60
2020/12/22 06:23:06;;;;;;;2.50;2.30;;;19.00;26.40;;;;;;5114417;28;20162;-60
2020/12/22 06:25:35;;;;;;;2.70;2.50;;;19.00;26.40;;;;;;5096774;28;20161;-60
2020/12/22 06:28:01;;;;;;;2.78;2.63;;;19.00;26.40;;;;;;5096328;28;20192;-60
2020/12/22 06:30:33;;;;;;;2.50;2.30;;;19.00;26.40;;;;;;5130662;27;20191;-60
2020/12/22 06:33:23;;;;;;;2.55;2.35;;;19.00;26.40;;;;;;5114324;28;20681;-61
2020/12/22 06:36:02;;;;;;;2.60;2.40;;;19.00;26.40;;;;;;5114653;28;20605;-60
2020/12/22 06:38:53;;;;;;;3.65;3.35;;;19.00;26.40;;;;;;5113996;28;20153;-60
2020/12/22 06:41:27;;;;;;;3.22;3.03;;;19.00;26.40;;;;;;5114487;28;20178;-60
2020/12/22 06:43:55;;;;;;;2.55;2.35;;;19.00;26.40;;;;;;5114479;28;20157;-60
2020/12/22 06:46:33;;;;;;;2.33;2.15;;;19.00;26.40;;;;;;5114438;28;20168;-60
2020/12/22 06:49:05;;;;;;;3.03;2.78;;;19.00;26.40;;;;;;5114133;28;20234;-60
2020/12/22 06:51:33;;;;;;;2.30;2.17;;;19.00;26.40;;;;;;5114372;28;20607;-60
2020/12/22 06:54:03;;;;;;;2.38;2.22;;;19.00;26.40;;;;;;5113800;28;20188;-61
2020/12/22 06:56:49;;;;;;;2.60;2.40;;;19.00;26.90;;;;;;5114373;28;20153;-60
2020/12/22 06:59:37;;;;;;;3.38;2.97;;;19.00;26.40;;;;;;5114213;28;20145;-60
2020/12/22 07:02:03;;;;;;;2.58;2.38;;;19.00;26.40;;;;;;5113088;28;20167;-60
2020/12/22 07:04:39;;;;;;;2.63;2.43;;;19.00;26.40;;;;;;5114293;28;20160;-60
2020/12/22 07:07:04;;;;;;;2.60;2.40;;;19.00;26.40;;;;;;5078846;28;20479;-60
2020/12/22 07:09:35;;;;;;;2.40;2.20;;;19.00;26.40;;;;;;5114058;28;20185;-61
2020/12/22 07:12:10;;;;;;;2.38;2.17;;;19.00;26.30;;;;;;5113927;28;20188;-60
2020/12/22 07:14:47;;;;;;;2.42;2.10;;;19.00;26.30;;;;;;5113979;28;20183;-60
2020/12/22 07:17:14;;;;;;;2.67;2.47;;;19.00;26.40;;;;;;5113758;28;20161;-60
2020/12/22 07:19:46;;;;;;;3.50;3.20;;;19.00;26.40;;;;;;5095886;28;20161;-60
2020/12/22 07:22:15;;;;;;;2.70;2.50;;;19.00;26.40;;;;;;5113697;28;20185;-60
2020/12/22 07:24:41;;;;;;;2.47;2.28;;;19.00;26.30;;;;;;5113980;28;20149;-61
2020/12/22 07:27:07;;;;;;;2.50;2.30;;;19.00;26.60;;;;;;5113799;28;20215;-61
2020/12/22 07:29:36;;;;;;;2.70;2.50;;;19.00;26.30;;;;;;5113706;28;20410;-61
2020/12/22 07:32:03;;;;;;;2.75;2.38;;;19.00;26.30;;;;;;5113785;28;20612;-60
2020/12/22 07:34:29;;;;;;;2.22;2.03;;;19.00;26.30;;;;;;5095569;28;20236;-61
2020/12/22 07:37:04;;;;;;;3.43;2.63;;;19.00;26.30;;;;;;5113238;28;20236;-60
2020/12/22 07:39:32;;;;;;;2.30;2.15;;;19.00;26.30;;;;;;5095754;28;20222;-60
2020/12/22 07:42:09;;;;;;;2.30;2.10;;;19.00;26.90;;;;;;5113468;28;20236;-60
2020/12/22 07:44:35;;;;;;;2.75;2.55;;;19.00;26.30;;;;;;5113188;28;20189;-61
2020/12/22 07:47:01;;;;;;;2.60;2.40;;;19.00;26.30;;;;;;5113656;28;20172;-60
2020/12/22 07:49:27;;;;;;;2.00;1.90;;;19.00;26.30;;;;;;5112258;28;20220;-60
2020/12/22 07:51:52;;;;;;;2.13;1.93;;;19.10;26.30;;;;;;5095051;28;20157;-60
2020/12/22 07:54:18;;;;;;;3.03;2.73;;;19.00;26.30;;;;;;5113265;28;20146;-61
2020/12/22 07:56:45;;;;;;;2.13;1.93;;;19.00;26.30;;;;;;5095213;28;20188;-60
2020/12/22 07:59:15;;;;;;;2.55;2.35;;;19.10;26.30;;;;;;5095154;28;20231;-60
2020/12/22 08:01:47;;;;;;;2.13;2.00;;;19.10;26.30;;;;;;5095219;28;20195;-61
2020/12/22 08:04:27;;;;;;;2.08;1.92;;;19.10;26.30;;;;;;5112983;28;20162;-60
2020/12/22 08:07:01;;;;;;;1.95;1.85;;;19.10;26.30;;;;;;5113128;28;20161;-59
2020/12/22 08:09:31;;;;;;;2.55;2.35;;;19.10;26.30;;;;;;5113209;28;20188;-60
2020/12/22 08:11:58;;;;;;;2.58;2.38;;;19.10;26.20;;;;;;5113162;28;20158;-60
2020/12/22 08:14:25;;;;;;;2.45;2.20;;;19.10;26.20;;;;;;5115823;28;20156;-60
2020/12/22 08:16:57;;;;;;;2.35;2.15;;;19.10;26.20;;;;;;5116962;28;20145;-60
2020/12/22 08:19:23;;;;;;;3.17;2.30;;;20.20;27.00;;;;;;5116907;28;20149;-60
2020/12/22 08:21:53;;;;;;;2.35;2.17;;;19.10;26.20;;;;;;5116819;28;20259;-59
2020/12/22 08:24:19;;;;;;;2.70;2.50;;;19.10;26.20;;;;;;5117300;28;20192;-60
2020/12/22 08:26:49;;;;;;;2.30;2.10;;;19.10;26.20;;;;;;5116977;28;20146;-60
2020/12/22 08:29:18;;;;;;;2.90;2.70;;;19.10;26.20;;;;;;5116678;28;20438;-60
2020/12/22 08:31:45;;;;;;;2.45;2.25;;;19.10;26.10;;;;;;5116767;28;20240;-60
2020/12/22 08:34:15;;;;;;;3.05;2.25;;;19.10;26.20;;;;;;5116592;28;20177;-60
2020/12/22 08:36:43;;;;;;;2.15;1.95;;;19.10;26.10;;;;;;5116680;28;20161;-61
2020/12/22 08:39:11;;;;;;;1.85;1.75;;;19.20;26.20;;;;;;5116101;28;20651;-61
2020/12/22 08:41:37;;;;;;;2.50;2.30;;;19.20;26.20;;;;;;5098220;28;20240;-60
2020/12/22 08:44:04;;;;;;;2.27;2.07;;;19.10;26.10;;;;;;5098032;28;20188;-60
2020/12/22 08:46:30;;;;;;;2.55;2.35;;;19.10;26.10;;;;;;5098200;28;20218;-60
2020/12/22 08:48:56;;;;;;;2.10;1.90;;;19.10;26.10;;;;;;5116078;28;20240;-60
2020/12/22 08:51:26;;;;;;;2.70;2.30;;;19.10;26.10;;;;;;5116273;28;20689;-61
2020/12/22 08:53:53;;;;;;;3.00;2.60;;;19.10;26.00;;;;;;5115586;28;20482;-61
2020/12/22 08:56:23;;;;;;;2.22;2.03;;;19.20;26.10;;;;;;5098057;28;20497;-59
2020/12/22 08:58:53;;;;;;;2.70;2.45;;;19.20;26.00;;;;;;5097900;28;20675;-60
2020/12/22 09:01:23;;;;;;;2.05;1.90;;;19.30;26.00;;;;;;5116408;28;20168;-60
2020/12/22 09:03:54;;;;;;;2.00;1.90;;;19.30;25.90;;;;;;5116045;28;20158;-59
2020/12/22 09:06:38;;;;;;;2.13;1.92;;;19.30;25.90;;;;;;5116154;28;20160;-59
2020/12/22 09:09:06;;;;;;;2.58;2.38;;;19.40;25.90;;;;;;5115585;28;20180;-59
2020/12/22 09:11:32;;;;;;;2.20;2.00;;;19.30;25.70;;;;;;5116101;28;20478;-60
2020/12/22 09:14:10;;;;;;;2.67;2.47;;;19.40;25.80;;;;;;5115867;28;20156;-60
2020/12/22 09:16:46;;;;;;;2.70;2.50;;;19.40;25.80;;;;;;5097665;28;20572;-60
2020/12/22 09:19:12;;;;;;;2.40;2.20;;;19.40;25.80;;;;;;5115939;28;20152;-60
2020/12/22 09:21:38;;;;;;;2.63;2.43;;;19.40;25.70;;;;;;5115698;28;20202;-60
2020/12/22 09:24:05;;;;;;;2.33;2.13;;;19.40;25.70;;;;;;5115351;28;20169;-60
2020/12/22 09:26:31;;;;;;;2.30;2.10;;;19.40;25.70;;;;;;5096307;28;20165;-59
2020/12/22 09:28:57;;;;;;;2.90;2.60;;;19.40;25.80;;;;;;5115619;28;20201;-59
2020/12/22 09:31:26;;;;;;;2.20;2.00;;;19.40;25.70;;;;;;5115566;28;20176;-60
2020/12/22 09:33:52;;;;;;;3.08;2.83;;;19.40;25.70;;;;;;5105737;28;20238;-59
2020/12/22 09:36:18;;;;;;;2.23;2.03;;;19.40;25.70;;;;;;5100536;27;20302;-59
2020/12/22 09:38:44;;;;;;;2.30;2.10;;;19.40;25.70;;;;;;5103323;27;20176;-59
2020/12/22 09:41:10;;;;;;;2.83;2.63;;;19.40;25.70;;;;;;5088826;28;20419;-59
2020/12/22 09:43:35;;;;;;;3.37;2.30;;;19.40;25.80;;;;;;5074845;28;20193;-60
2020/12/22 09:46:01;;;;;;;2.53;2.33;;;19.40;25.70;;;;;;5086638;28;20909;-60
2020/12/22 09:48:27;;;;;;;2.93;2.10;;;19.40;25.70;;;;;;5109533;28;20459;-60
2020/12/22 09:50:53;;;;;;;2.00;1.90;;;19.40;25.80;;;;;;5100261;28;20204;-60
2020/12/22 09:53:19;;;;;;;2.60;2.40;;;19.40;26.30;;;;;;5108752;28;20189;-60
2020/12/22 09:55:45;;;;;;;2.20;2.00;;;19.40;25.70;;;;;;5095009;28;20921;-60
2020/12/22 09:58:10;;;;;;;3.17;2.87;;;19.30;25.60;;;;;;5110701;28;20218;-59
2020/12/22 10:00:36;;;;;;;1.77;1.63;;;19.40;25.70;;;;;;5101113;28;20185;-59
2020/12/22 10:03:02;;;;;;;2.70;2.13;;;19.40;25.60;;;;;;5094909;28;20186;-59
2020/12/22 10:05:27;;;;;;;2.80;2.60;;;19.50;25.70;;;;;;5111254;27;20584;-59
2020/12/22 10:07:53;;;;;;;2.60;2.40;;;19.50;25.60;;;;;;5083968;28;20240;-59
2020/12/22 10:10:19;;;;;;;2.40;2.20;;;19.50;25.50;;;;;;5110718;28;20180;-59
2020/12/22 10:12:44;;;;;;;2.73;2.50;;;19.50;25.50;;;;;;5104719;27;20260;-59
2020/12/22 10:15:10;;;;;;;2.43;2.23;;;19.50;25.40;;;;;;5087325;28;20189;-59
2020/12/22 10:17:36;;;;;;;2.70;2.50;;;19.60;25.50;;;;;;5087258;28;20192;-59
2020/12/22 10:20:03;;;;;;;2.33;2.13;;;19.60;25.40;;;;;;5109365;28;20192;-59
2020/12/22 10:22:31;;;;;;;2.63;2.42;;;19.60;25.40;;;;;;5107771;28;20173;-60
2020/12/22 10:24:57;;;;;;;2.40;1.98;;;19.60;25.30;;;;;;5088678;27;20653;-59
2020/12/22 10:27:25;;;;;;;2.77;2.40;;;19.60;25.30;;;;;;5095709;27;20181;-59
2020/12/22 10:29:51;;;;;;;2.60;2.40;;;19.60;25.20;;;;;;5120293;27;20165;-59
2020/12/22 10:32:17;;;;;;;2.60;2.40;;;19.70;25.30;;;;;;5108409;28;20298;-59
2020/12/22 10:34:42;;;;;;;2.43;2.23;;;19.70;25.30;;;;;;5079692;28;20166;-59
2020/12/22 10:37:08;;;;;;;2.73;2.53;;;19.70;25.20;;;;;;5100763;28;20189;-60
2020/12/22 10:39:34;;;;;;;2.77;2.20;;;19.70;25.20;;;;;;5101168;28;20215;-60
2020/12/22 10:42:00;;;;;;;2.60;2.00;;;19.70;25.20;;;;;;5096435;28;20181;-59
2020/12/22 10:44:25;;;;;;;3.00;2.77;;;19.70;25.10;;;;;;5102713;28;20195;-61
2020/12/22 10:46:51;;;;;;;3.10;2.30;;;19.70;25.10;;;;;;5103311;28;20169;-59
2020/12/22 10:49:17;;;;;;;2.70;2.20;;;19.70;25.10;;;;;;5107582;28;20232;-60
2020/12/22 10:51:43;;;;;;;2.40;2.17;;;19.80;25.10;;;;;;5113361;28;20177;-59
2020/12/22 10:54:08;;;;;;;2.90;2.70;;;19.80;25.10;;;;;;5110439;28;20260;-59
2020/12/22 10:56:34;;;;;;;3.30;2.60;;;19.80;25.10;;;;;;5108282;28;20162;-60
2020/12/22 10:59:00;;;;;;;2.90;2.43;;;19.80;25.10;;;;;;5100026;28;20946;-59
2020/12/22 11:01:30;;;;;;;2.53;2.28;;;19.70;25.10;;;;;;5109465;28;20229;-59
2020/12/22 11:03:55;;;;;;;2.53;2.10;;;19.70;25.10;;;;;;5085269;28;20165;-60
2020/12/22 11:09:25;;;;;;;3.65;3.05;;;19.70;25.10;;;;;;5006543;28;20663;-60
2020/12/22 11:11:51;;;;;;;3.23;2.90;;;19.70;25.10;;;;;;5010091;28;20256;-60
2020/12/22 11:14:16;;;;;;;2.80;2.60;;;19.80;25.20;;;;;;5052215;28;20275;-60
2020/12/22 11:16:42;;;;;;;2.80;2.40;;;19.80;25.10;;;;;;5071768;28;20223;-60
2020/12/22 11:19:08;;;;;;;4.60;3.40;;;19.80;25.10;;;;;;5100582;28;20284;-60
2020/12/22 11:21:33;;;;;;;3.20;2.90;;;19.80;25.10;;;;;;5087982;28;20181;-59
2020/12/22 11:23:59;;;;;;;3.90;3.27;;;19.80;25.20;;;;;;5070580;28;20606;-59
2020/12/22 11:26:25;;;;;;;3.60;3.30;;;19.80;25.10;;;;;;5105634;28;20200;-60
2020/12/22 11:28:51;;;;;;;3.03;2.63;;;19.70;25.10;;;;;;5102917;28;20264;-60
2020/12/22 11:31:18;;;;;;;4.25;3.38;;;19.80;25.20;;;;;;5105155;28;20184;-59
2020/12/22 11:33:44;;;;;;;3.17;2.88;;;19.80;25.20;;;;;;5108645;28;20172;-60
2020/12/22 11:36:14;;;;;;;4.07;3.70;;;19.80;25.20;;;;;;5112805;28;20161;-60
2020/12/22 11:38:40;;;;;;;3.90;3.50;;;19.80;25.20;;;;;;5089079;28;20234;-59
2020/12/22 11:41:06;;;;;;;4.10;3.70;;;19.80;25.20;;;;;;5105499;28;20202;-60
2020/12/22 11:43:32;;;;;;;5.20;3.97;;;19.80;25.20;;;;;;5096612;28;20859;-60
2020/12/22 11:45:58;;;;;;;4.20;3.80;;;19.80;25.20;;;;;;5083625;28;20466;-60
2020/12/22 11:48:24;;;;;;;4.60;3.55;;;19.80;25.20;;;;;;5083826;28;20210;-60
2020/12/22 11:50:57;;;;;;;5.35;4.53;;;19.80;25.20;;;;;;5106396;28;20271;-60
2020/12/22 11:53:23;;;;;;;5.30;4.00;;;19.70;25.10;;;;;;5106823;28;20176;-60
2020/12/22 11:55:52;;;;;;;3.80;3.40;;;19.70;25.20;;;;;;5108529;28;20613;-60
2020/12/22 11:58:17;;;;;;;5.05;4.22;;;19.70;25.70;;;;;;5107939;27;20177;-60
2020/12/22 12:00:43;;;;;;;5.70;3.80;;;19.70;25.20;;;;;;5103841;28;20172;-60
2020/12/22 12:03:09;;;;;;;4.80;3.67;;;19.70;25.20;;;;;;5108836;27;20658;-59
2020/12/22 12:05:34;;;;;;;4.20;3.80;;;19.70;25.20;;;;;;5111639;28;20180;-59
2020/12/22 12:08:00;;;;;;;4.60;3.93;;;19.80;25.30;;;;;;5113041;28;20655;-59
2020/12/22 12:10:26;;;;;;;5.17;4.50;;;19.70;25.20;;;;;;5106938;28;20263;-60
2020/12/22 12:12:51;;;;;;;4.20;3.47;;;19.80;25.20;;;;;;5092184;28;20583;-60
2020/12/22 12:15:17;;;;;;;5.80;4.20;;;19.80;25.20;;;;;;5110479;28;20544;-60
2020/12/22 12:17:43;;;;;;;6.60;4.27;;;19.80;25.10;;;;;;5104733;28;20210;-59
2020/12/22 12:20:09;;;;;;;4.53;3.33;;;19.80;25.10;;;;;;5109702;27;20648;-59
2020/12/22 12:22:41;;;;;;;4.87;4.37;;;19.80;25.10;;;;;;5082192;28;20265;-59
2020/12/22 12:25:07;;;;;;;4.47;4.07;;;19.90;25.10;;;;;;5100651;27;20439;-58
2020/12/22 12:27:32;;;;;;;4.47;4.07;;;19.90;25.10;;;;;;5082177;28;20169;-59
2020/12/22 12:29:58;;;;;;;5.00;4.50;;;19.90;25.00;;;;;;5111049;28;20905;-59
2020/12/22 12:32:29;;;;;;;5.63;4.97;;;19.90;25.00;;;;;;5100814;28;20180;-58
2020/12/22 12:34:55;;;;;;;4.55;4.03;;;19.90;25.00;;;;;;5083812;28;20165;-59
2020/12/22 12:37:21;;;;;;;5.28;4.60;;;19.90;25.00;;;;;;5106436;28;20173;-59
2020/12/22 12:39:47;;;;;;;4.47;4.07;;;19.90;25.00;;;;;;5116448;28;20172;-60
2020/12/22 12:42:12;;;;;;;4.40;4.00;;;19.90;24.90;;;;;;5115965;28;20184;-59
2020/12/22 12:44:38;;;;;;;4.63;4.03;;;19.90;25.00;;;;;;5114675;28;20414;-60
2020/12/22 12:47:04;;;;;;;4.43;4.03;;;19.90;25.00;;;;;;5109943;28;20161;-60
2020/12/22 12:49:29;;;;;;;4.43;3.90;;;19.90;25.00;;;;;;5102062;28;20217;-59
2020/12/22 12:51:55;;;;;;;5.00;3.90;;;19.90;25.10;;;;;;5092629;28;20161;-59